This is the latest recevied weather packets stored in our database for station/object KJ5IIV. If no packets are shown the sender has not sent any weather packets the latest 10 day(s).
| Time | Temp. | Humidity | Pressure | Rain* | Wind** | Luminosity | Snow |
|---|---|---|---|---|---|---|---|
| 1777735797 | 20.56° C | 59% | 1021.3 hPa | 0 mm | - | 734 W/m² | - |
| 1777735495 | 20° C | 62% | 1021.1 hPa | 0 mm | - | 743 W/m² | - |
| 1777735193 | 20° C | 61% | 1021.2 hPa | 0 mm | - | 691 W/m² | - |
| 1777734889 | 20° C | 58% | 1021.2 hPa | 0 mm | - | 679 W/m² | - |
| 1777734587 | 20.56° C | 59% | 1021 hPa | 0 mm | - | 670 W/m² | - |
| 1777734284 | 19.44° C | 65% | 1021 hPa | 0 mm | - | 648 W/m² | - |
| 1777733979 | 19.44° C | 64% | 1020.8 hPa | 0 mm | - | 634 W/m² | - |
| 1777733676 | 19.44° C | 67% | 1020.8 hPa | 0 mm | - | 617 W/m² | - |
| 1777733373 | 18.89° C | 67% | 1020.9 hPa | 0 mm | - | 598 W/m² | - |
| 1777733070 | 18.89° C | 68% | 1020.7 hPa | 0 mm | - | 575 W/m² | - |
| 1777732766 | 18.89° C | 68% | 1020.9 hPa | 0 mm | - | 560 W/m² | - |
| 1777732463 | 18.89° C | 66% | 1021.1 hPa | 0 mm | - | 542 W/m² | - |
| 1777732160 | 18.33° C | 68% | 1021.1 hPa | 0 mm | - | 525 W/m² | - |
| 1777731857 | 18.33° C | 68% | 1021 hPa | 0 mm | - | 507 W/m² | - |
| 1777731554 | 17.78° C | 70% | 1020.9 hPa | 0 mm | - | 486 W/m² | - |
| 1777731252 | 17.22° C | 73% | 1020.8 hPa | 0 mm | - | 464 W/m² | - |
| 1777730949 | 17.22° C | 71% | 1020.7 hPa | 0 mm | - | 439 W/m² | - |
| 1777730648 | 17.78° C | 68% | 1020.8 hPa | 0 mm | - | 419 W/m² | - |
| 1777730343 | 17.22° C | 71% | 1020.7 hPa | 0 mm | - | 388 W/m² | - |
| 1777730040 | 16.67° C | 73% | 1020.6 hPa | 0 mm | - | 360 W/m² | - |
| 1777729736 | 16.67° C | 70% | 1020.5 hPa | 0 mm | - | 350 W/m² | - |
| 1777729433 | 16.67° C | 72% | 1020.4 hPa | 0 mm | - | 356 W/m² | - |
| 1777729129 | 16.11° C | 74% | 1020.4 hPa | 0 mm | - | 248 W/m² | - |
| 1777728826 | 15.56° C | 73% | 1020.4 hPa | 0 mm | - | 242 W/m² | - |
| 1777728523 | 15.56° C | 73% | 1020.2 hPa | 0 mm | - | 261 W/m² | - |
* Rain latest hour (hover to see other rain measurements)
** Current wind speed in m/s (hover to see current wind gust speed)